메인 페이지
METAR-TAF:

METAR-TAF

공항 :

만달레이 국제공항

만달레이, 미얀마

위도: 21-59N, 경도: 096-06E, 고도: 74m

현재 날씨관측

예보는 1 시간 5분 전, 09:30시(UTC)에 발표되었습니다.
북서7kt
온도 29°C
습도 58%
기압 1014 hPa
시정: 8000m
고도 2000ft 상공 구름 보통
고도 12000ft 상공 구름 보통

METAR: VYMD 150930Z 32007KT 8000 SCT020 SCT120 29/20 Q1014

시각: 17:05 (10:35 UTC)

예보

예보는 5 시간 35분 전, 05:00시(UTC)에 발표되었습니다.
예보 대상 시간: 15일 06시부터 16일 06시까지 (UTC)
북서6kt
시정: 7000m
고도 2000ft 상공 구름 많음
고도 2500ft 상공 구름 조금, 적란운.
일시적
15일 06시부터 15일 12시까지 (UTC)
7kt
시정: 6000m
고도 2000ft 상공 구름 많음
고도 2500ft 상공 구름 조금, 적란운.
고도 12000ft 상공 구름 보통

TAF: VYMD 150500Z 1506/1606 32006KT 7000 BKN020 FEW025CB TEMPO 1506/1512 36007KT 6000 BKN020 FEW025CB SCT120

4,000개 이상의 공항 관측 자료 및 예보 (METAR 및 TAF 보고).

지도상에서 검색 가능한 기상관측소가 노란 점과 빨간 점으로 표시되어 있습니다.

기상관측소 명을 보려면 표시 위로 마우스를 이동하세요.

날씨 관측과 예보를 보려면 클릭하세요.

지도 변경 : 확대하려면 엑스 표시가 있는 녹색 버튼, 축소하려면 빼기 표시가 있는 녹색 버튼, 다음 페이지의 지도를 보려면 녹색 화살표를 클릭하세요.


METAR-TAF: